sensor_id;sensor_type;location;lat;lon;timestamp;temperature;humidity
17348;DHT22;8791;50.876;4.342;2024-02-16T00:02:04;14.70;99.90
17348;DHT22;8791;50.876;4.342;2024-02-16T00:04:31;14.70;99.90
17348;DHT22;8791;50.876;4.342;2024-02-16T00:06:59;14.60;99.90
17348;DHT22;8791;50.876;4.342;2024-02-16T00:09:26;14.50;99.90
17348;DHT22;8791;50.876;4.342;2024-02-16T00:11:52;14.60;99.90
17348;DHT22;8791;50.876;4.342;2024-02-16T00:14:20;14.80;99.90
17348;DHT22;8791;50.876;4.342;2024-02-16T00:16:47;14.90;99.90
17348;DHT22;8791;50.876;4.342;2024-02-16T00:19:14;14.80;99.90
17348;DHT22;8791;50.876;4.342;2024-02-16T00:21:41;14.60;99.90
17348;DHT22;8791;50.876;4.342;2024-02-16T00:24:09;14.50;99.90
17348;DHT22;8791;50.876;4.342;2024-02-16T00:26:37;14.50;99.90
17348;DHT22;8791;50.876;4.342;2024-02-16T00:29:05;14.60;99.90
17348;DHT22;8791;50.876;4.342;2024-02-16T00:31:31;14.60;99.90
17348;DHT22;8791;50.876;4.342;2024-02-16T00:33:58;14.60;99.90
17348;DHT22;8791;50.876;4.342;2024-02-16T00:36:26;14.50;99.90
17348;DHT22;8791;50.876;4.342;2024-02-16T00:38:53;14.50;99.90
17348;DHT22;8791;50.876;4.342;2024-02-16T00:41:22;14.40;99.90
17348;DHT22;8791;50.876;4.342;2024-02-16T00:43:49;14.40;99.90
17348;DHT22;8791;50.876;4.342;2024-02-16T00:46:17;14.40;99.90
17348;DHT22;8791;50.876;4.342;2024-02-16T00:48:44;14.50;99.90
17348;DHT22;8791;50.876;4.342;2024-02-16T00:51:12;14.60;99.90
17348;DHT22;8791;50.876;4.342;2024-02-16T00:53:39;14.50;99.90
17348;DHT22;8791;50.876;4.342;2024-02-16T00:56:06;14.60;99.90
17348;DHT22;8791;50.876;4.342;2024-02-16T00:58:35;14.50;99.90
17348;DHT22;8791;50.876;4.342;2024-02-16T01:01:04;14.60;99.90
17348;DHT22;8791;50.876;4.342;2024-02-16T01:03:36;14.60;99.90
17348;DHT22;8791;50.876;4.342;2024-02-16T01:06:03;14.50;99.90
17348;DHT22;8791;50.876;4.342;2024-02-16T01:08:32;14.50;99.90
17348;DHT22;8791;50.876;4.342;2024-02-16T01:10:59;14.60;99.90
17348;DHT22;8791;50.876;4.342;2024-02-16T01:13:26;14.70;99.90
17348;DHT22;8791;50.876;4.342;2024-02-16T01:15:54;14.70;99.90
17348;DHT22;8791;50.876;4.342;2024-02-16T01:18:21;14.60;99.90
17348;DHT22;8791;50.876;4.342;2024-02-16T01:20:47;14.60;99.90
17348;DHT22;8791;50.876;4.342;2024-02-16T01:23:13;14.40;99.90
17348;DHT22;8791;50.876;4.342;2024-02-16T01:25:40;14.40;99.90
17348;DHT22;8791;50.876;4.342;2024-02-16T01:28:07;14.40;99.90
17348;DHT22;8791;50.876;4.342;2024-02-16T01:30:34;14.40;99.90
17348;DHT22;8791;50.876;4.342;2024-02-16T01:33:04;14.40;99.90
17348;DHT22;8791;50.876;4.342;2024-02-16T01:35:31;14.50;99.90
17348;DHT22;8791;50.876;4.342;2024-02-16T01:37:58;14.60;99.90
17348;DHT22;8791;50.876;4.342;2024-02-16T01:40:27;14.70;99.90
17348;DHT22;8791;50.876;4.342;2024-02-16T01:42:54;14.50;99.90
17348;DHT22;8791;50.876;4.342;2024-02-16T01:45:21;14.40;99.90
17348;DHT22;8791;50.876;4.342;2024-02-16T01:47:50;14.40;99.90
17348;DHT22;8791;50.876;4.342;2024-02-16T01:50:19;14.40;99.90
17348;DHT22;8791;50.876;4.342;2024-02-16T01:52:47;14.60;99.90
17348;DHT22;8791;50.876;4.342;2024-02-16T01:55:15;14.50;99.90
17348;DHT22;8791;50.876;4.342;2024-02-16T01:57:44;14.40;99.90
17348;DHT22;8791;50.876;4.342;2024-02-16T02:00:12;14.40;99.90
17348;DHT22;8791;50.876;4.342;2024-02-16T02:02:41;14.50;99.90
17348;DHT22;8791;50.876;4.342;2024-02-16T02:05:10;14.50;99.90
17348;DHT22;8791;50.876;4.342;2024-02-16T02:07:39;14.50;99.90
17348;DHT22;8791;50.876;4.342;2024-02-16T02:10:06;14.50;99.90
17348;DHT22;8791;50.876;4.342;2024-02-16T02:12:33;14.40;99.90
17348;DHT22;8791;50.876;4.342;2024-02-16T02:15:00;14.40;99.90
17348;DHT22;8791;50.876;4.342;2024-02-16T02:17:28;14.50;99.90
17348;DHT22;8791;50.876;4.342;2024-02-16T02:19:55;14.50;99.90
17348;DHT22;8791;50.876;4.342;2024-02-16T02:22:23;14.50;99.90
17348;DHT22;8791;50.876;4.342;2024-02-16T02:24:53;14.50;99.90
17348;DHT22;8791;50.876;4.342;2024-02-16T02:27:21;14.50;99.90
17348;DHT22;8791;50.876;4.342;2024-02-16T02:29:48;14.60;99.90
17348;DHT22;8791;50.876;4.342;2024-02-16T02:32:15;14.60;99.90
17348;DHT22;8791;50.876;4.342;2024-02-16T02:34:42;14.50;99.90
17348;DHT22;8791;50.876;4.342;2024-02-16T02:37:09;14.50;99.90
17348;DHT22;8791;50.876;4.342;2024-02-16T02:42:12;14.50;99.90
17348;DHT22;8791;50.876;4.342;2024-02-16T02:44:39;14.50;99.90
17348;DHT22;8791;50.876;4.342;2024-02-16T02:47:08;14.60;99.90
17348;DHT22;8791;50.876;4.342;2024-02-16T02:49:34;14.50;99.90
17348;DHT22;8791;50.876;4.342;2024-02-16T02:52:01;14.60;99.90
17348;DHT22;8791;50.876;4.342;2024-02-16T02:54:29;14.60;99.90
17348;DHT22;8791;50.876;4.342;2024-02-16T02:56:56;14.50;99.90
17348;DHT22;8791;50.876;4.342;2024-02-16T02:59:24;14.60;99.90
17348;DHT22;8791;50.876;4.342;2024-02-16T03:01:51;14.50;99.90
17348;DHT22;8791;50.876;4.342;2024-02-16T03:04:18;14.50;99.90
17348;DHT22;8791;50.876;4.342;2024-02-16T03:06:46;14.60;99.90
17348;DHT22;8791;50.876;4.342;2024-02-16T03:09:13;14.50;99.90
17348;DHT22;8791;50.876;4.342;2024-02-16T03:11:40;14.50;99.90
17348;DHT22;8791;50.876;4.342;2024-02-16T03:14:07;14.50;99.90
17348;DHT22;8791;50.876;4.342;2024-02-16T03:16:35;14.50;99.90
17348;DHT22;8791;50.876;4.342;2024-02-16T03:19:05;14.50;99.90
17348;DHT22;8791;50.876;4.342;2024-02-16T03:21:34;14.60;99.90
17348;DHT22;8791;50.876;4.342;2024-02-16T03:24:01;14.60;99.90
17348;DHT22;8791;50.876;4.342;2024-02-16T03:26:29;14.60;99.90
17348;DHT22;8791;50.876;4.342;2024-02-16T03:28:58;14.70;99.90
17348;DHT22;8791;50.876;4.342;2024-02-16T03:31:25;14.70;99.90
17348;DHT22;8791;50.876;4.342;2024-02-16T03:33:54;14.70;99.90
17348;DHT22;8791;50.876;4.342;2024-02-16T03:36:21;14.60;99.90
17348;DHT22;8791;50.876;4.342;2024-02-16T03:38:48;14.70;99.90
17348;DHT22;8791;50.876;4.342;2024-02-16T03:41:19;14.60;99.90
17348;DHT22;8791;50.876;4.342;2024-02-16T03:43:46;14.60;99.90
17348;DHT22;8791;50.876;4.342;2024-02-16T03:46:13;14.60;99.90
17348;DHT22;8791;50.876;4.342;2024-02-16T03:48:40;14.60;99.90
17348;DHT22;8791;50.876;4.342;2024-02-16T03:51:08;14.60;99.90
17348;DHT22;8791;50.876;4.342;2024-02-16T03:53:35;14.70;99.90
17348;DHT22;8791;50.876;4.342;2024-02-16T03:56:02;14.70;99.90
17348;DHT22;8791;50.876;4.342;2024-02-16T03:58:31;14.70;99.90
17348;DHT22;8791;50.876;4.342;2024-02-16T04:00:58;14.70;99.90
17348;DHT22;8791;50.876;4.342;2024-02-16T04:03:25;14.80;99.90
17348;DHT22;8791;50.876;4.342;2024-02-16T04:05:52;14.80;99.90
17348;DHT22;8791;50.876;4.342;2024-02-16T04:08:21;14.90;99.90
17348;DHT22;8791;50.876;4.342;2024-02-16T04:10:47;14.90;99.90
17348;DHT22;8791;50.876;4.342;2024-02-16T04:13:14;14.90;99.90
17348;DHT22;8791;50.876;4.342;2024-02-16T04:15:41;14.70;99.90
17348;DHT22;8791;50.876;4.342;2024-02-16T04:18:08;14.70;99.90
17348;DHT22;8791;50.876;4.342;2024-02-16T04:20:35;14.70;99.90
17348;DHT22;8791;50.876;4.342;2024-02-16T04:23:03;14.80;99.90
17348;DHT22;8791;50.876;4.342;2024-02-16T04:25:31;14.70;99.90
17348;DHT22;8791;50.876;4.342;2024-02-16T04:27:58;14.80;99.90
17348;DHT22;8791;50.876;4.342;2024-02-16T04:30:25;14.90;99.90
17348;DHT22;8791;50.876;4.342;2024-02-16T04:32:52;14.90;99.90
17348;DHT22;8791;50.876;4.342;2024-02-16T04:35:19;15.00;99.90
17348;DHT22;8791;50.876;4.342;2024-02-16T04:37:47;14.90;99.90
17348;DHT22;8791;50.876;4.342;2024-02-16T04:40:15;14.80;99.90
17348;DHT22;8791;50.876;4.342;2024-02-16T04:42:43;14.80;99.90
17348;DHT22;8791;50.876;4.342;2024-02-16T04:45:11;14.80;99.90
17348;DHT22;8791;50.876;4.342;2024-02-16T04:47:39;14.80;99.90
17348;DHT22;8791;50.876;4.342;2024-02-16T04:50:06;14.90;99.90
17348;DHT22;8791;50.876;4.342;2024-02-16T04:52:36;14.90;99.90
17348;DHT22;8791;50.876;4.342;2024-02-16T04:55:05;14.90;99.90
17348;DHT22;8791;50.876;4.342;2024-02-16T04:57:32;15.00;99.90
17348;DHT22;8791;50.876;4.342;2024-02-16T05:00:01;14.90;99.90
17348;DHT22;8791;50.876;4.342;2024-02-16T05:02:28;14.90;99.90
17348;DHT22;8791;50.876;4.342;2024-02-16T05:04:54;14.90;99.90
17348;DHT22;8791;50.876;4.342;2024-02-16T05:07:22;14.90;99.90
17348;DHT22;8791;50.876;4.342;2024-02-16T05:09:49;14.90;99.90
17348;DHT22;8791;50.876;4.342;2024-02-16T05:12:21;14.80;99.90
17348;DHT22;8791;50.876;4.342;2024-02-16T05:14:49;14.80;99.90
17348;DHT22;8791;50.876;4.342;2024-02-16T05:17:18;14.80;99.90
17348;DHT22;8791;50.876;4.342;2024-02-16T05:19:46;14.80;99.90
17348;DHT22;8791;50.876;4.342;2024-02-16T05:22:13;14.90;99.90
17348;DHT22;8791;50.876;4.342;2024-02-16T05:24:42;14.80;99.90
17348;DHT22;8791;50.876;4.342;2024-02-16T05:27:10;14.80;99.90
17348;DHT22;8791;50.876;4.342;2024-02-16T05:29:37;14.70;99.90
17348;DHT22;8791;50.876;4.342;2024-02-16T05:32:06;14.70;99.90
17348;DHT22;8791;50.876;4.342;2024-02-16T05:34:34;14.70;99.90
17348;DHT22;8791;50.876;4.342;2024-02-16T05:37:04;14.60;99.90
17348;DHT22;8791;50.876;4.342;2024-02-16T05:39:32;14.60;99.90
17348;DHT22;8791;50.876;4.342;2024-02-16T05:42:01;14.70;99.90
17348;DHT22;8791;50.876;4.342;2024-02-16T05:44:29;14.70;99.90
17348;DHT22;8791;50.876;4.342;2024-02-16T05:46:58;14.70;99.90
17348;DHT22;8791;50.876;4.342;2024-02-16T05:49:25;14.70;99.90
17348;DHT22;8791;50.876;4.342;2024-02-16T05:51:53;14.80;99.90
17348;DHT22;8791;50.876;4.342;2024-02-16T05:54:37;14.80;99.90
17348;DHT22;8791;50.876;4.342;2024-02-16T05:57:04;14.80;99.90
17348;DHT22;8791;50.876;4.342;2024-02-16T05:59:34;14.80;99.90
17348;DHT22;8791;50.876;4.342;2024-02-16T06:02:01;14.80;99.90
17348;DHT22;8791;50.876;4.342;2024-02-16T06:04:28;14.80;99.90
17348;DHT22;8791;50.876;4.342;2024-02-16T06:06:57;14.70;99.90
17348;DHT22;8791;50.876;4.342;2024-02-16T06:09:23;14.70;99.90
17348;DHT22;8791;50.876;4.342;2024-02-16T06:11:50;14.70;99.90
17348;DHT22;8791;50.876;4.342;2024-02-16T06:14:17;14.80;99.90
17348;DHT22;8791;50.876;4.342;2024-02-16T06:16:45;14.80;99.90
17348;DHT22;8791;50.876;4.342;2024-02-16T06:19:12;14.80;99.90
17348;DHT22;8791;50.876;4.342;2024-02-16T06:21:39;14.80;99.90
17348;DHT22;8791;50.876;4.342;2024-02-16T06:24:07;14.70;99.90
17348;DHT22;8791;50.876;4.342;2024-02-16T06:26:34;14.70;99.90
17348;DHT22;8791;50.876;4.342;2024-02-16T06:29:01;14.60;99.90
17348;DHT22;8791;50.876;4.342;2024-02-16T06:31:28;14.50;99.90
17348;DHT22;8791;50.876;4.342;2024-02-16T06:33:54;14.60;99.90
17348;DHT22;8791;50.876;4.342;2024-02-16T06:36:22;14.50;99.90
17348;DHT22;8791;50.876;4.342;2024-02-16T06:38:49;14.50;99.90
17348;DHT22;8791;50.876;4.342;2024-02-16T06:41:18;14.40;99.90
17348;DHT22;8791;50.876;4.342;2024-02-16T06:43:45;14.40;99.90
17348;DHT22;8791;50.876;4.342;2024-02-16T06:46:12;14.40;99.90
17348;DHT22;8791;50.876;4.342;2024-02-16T06:48:39;14.40;99.90
17348;DHT22;8791;50.876;4.342;2024-02-16T06:51:06;14.40;99.90
17348;DHT22;8791;50.876;4.342;2024-02-16T06:53:33;14.40;99.90
17348;DHT22;8791;50.876;4.342;2024-02-16T06:56:00;14.40;99.90
17348;DHT22;8791;50.876;4.342;2024-02-16T06:58:28;14.40;99.90
17348;DHT22;8791;50.876;4.342;2024-02-16T07:00:55;14.30;99.90
17348;DHT22;8791;50.876;4.342;2024-02-16T07:03:23;14.20;99.90
17348;DHT22;8791;50.876;4.342;2024-02-16T07:05:50;14.20;99.90
17348;DHT22;8791;50.876;4.342;2024-02-16T07:08:17;14.20;99.90
17348;DHT22;8791;50.876;4.342;2024-02-16T07:10:44;14.10;99.90
17348;DHT22;8791;50.876;4.342;2024-02-16T07:13:13;14.10;99.90
17348;DHT22;8791;50.876;4.342;2024-02-16T07:15:41;14.00;99.90
17348;DHT22;8791;50.876;4.342;2024-02-16T07:18:08;13.90;99.90
17348;DHT22;8791;50.876;4.342;2024-02-16T07:20:35;13.90;99.90
17348;DHT22;8791;50.876;4.342;2024-02-16T07:23:03;14.00;99.90
17348;DHT22;8791;50.876;4.342;2024-02-16T07:25:30;13.90;99.90
17348;DHT22;8791;50.876;4.342;2024-02-16T07:27:57;13.90;99.90
17348;DHT22;8791;50.876;4.342;2024-02-16T07:30:24;13.90;99.90
17348;DHT22;8791;50.876;4.342;2024-02-16T07:32:53;14.10;99.90
17348;DHT22;8791;50.876;4.342;2024-02-16T07:35:20;14.00;99.90
17348;DHT22;8791;50.876;4.342;2024-02-16T07:37:49;13.90;99.90
17348;DHT22;8791;50.876;4.342;2024-02-16T07:40:17;13.90;99.90
17348;DHT22;8791;50.876;4.342;2024-02-16T07:42:45;13.90;99.90
17348;DHT22;8791;50.876;4.342;2024-02-16T07:45:12;13.80;99.90
17348;DHT22;8791;50.876;4.342;2024-02-16T07:47:41;13.80;99.90
17348;DHT22;8791;50.876;4.342;2024-02-16T07:50:09;13.90;99.90
17348;DHT22;8791;50.876;4.342;2024-02-16T07:52:38;13.90;99.90
17348;DHT22;8791;50.876;4.342;2024-02-16T07:55:06;14.00;99.90
17348;DHT22;8791;50.876;4.342;2024-02-16T07:57:33;14.00;99.90
17348;DHT22;8791;50.876;4.342;2024-02-16T07:59:59;14.10;99.90
17348;DHT22;8791;50.876;4.342;2024-02-16T08:02:26;14.00;99.90
17348;DHT22;8791;50.876;4.342;2024-02-16T08:04:54;14.00;99.90
17348;DHT22;8791;50.876;4.342;2024-02-16T08:07:22;14.00;99.90
17348;DHT22;8791;50.876;4.342;2024-02-16T08:09:49;14.00;99.90
17348;DHT22;8791;50.876;4.342;2024-02-16T08:12:16;14.00;99.90
17348;DHT22;8791;50.876;4.342;2024-02-16T08:14:43;14.00;99.90
17348;DHT22;8791;50.876;4.342;2024-02-16T08:17:10;14.10;99.90
17348;DHT22;8791;50.876;4.342;2024-02-16T08:19:38;14.10;99.90
17348;DHT22;8791;50.876;4.342;2024-02-16T08:22:07;14.20;99.90
17348;DHT22;8791;50.876;4.342;2024-02-16T08:24:37;14.40;99.90
17348;DHT22;8791;50.876;4.342;2024-02-16T08:27:05;14.40;99.90
17348;DHT22;8791;50.876;4.342;2024-02-16T08:29:31;14.40;99.90
17348;DHT22;8791;50.876;4.342;2024-02-16T08:31:58;14.40;99.90
17348;DHT22;8791;50.876;4.342;2024-02-16T08:34:25;14.60;99.90
17348;DHT22;8791;50.876;4.342;2024-02-16T08:36:54;14.70;99.90
17348;DHT22;8791;50.876;4.342;2024-02-16T08:39:21;14.60;99.90
17348;DHT22;8791;50.876;4.342;2024-02-16T08:41:52;14.50;99.90
17348;DHT22;8791;50.876;4.342;2024-02-16T08:44:18;14.40;99.90
17348;DHT22;8791;50.876;4.342;2024-02-16T08:46:45;14.20;99.90
17348;DHT22;8791;50.876;4.342;2024-02-16T08:49:14;14.20;99.90
17348;DHT22;8791;50.876;4.342;2024-02-16T08:51:41;14.30;99.90
17348;DHT22;8791;50.876;4.342;2024-02-16T08:54:09;14.40;99.90
17348;DHT22;8791;50.876;4.342;2024-02-16T08:56:36;14.40;99.90
17348;DHT22;8791;50.876;4.342;2024-02-16T08:59:06;14.20;99.90
17348;DHT22;8791;50.876;4.342;2024-02-16T09:01:33;14.20;99.90
17348;DHT22;8791;50.876;4.342;2024-02-16T09:04:01;14.20;99.90
17348;DHT22;8791;50.876;4.342;2024-02-16T09:06:28;14.20;99.90
17348;DHT22;8791;50.876;4.342;2024-02-16T09:08:55;14.20;99.90
17348;DHT22;8791;50.876;4.342;2024-02-16T09:11:23;14.20;99.90
17348;DHT22;8791;50.876;4.342;2024-02-16T09:13:50;14.20;99.90
17348;DHT22;8791;50.876;4.342;2024-02-16T09:16:19;14.20;99.90
17348;DHT22;8791;50.876;4.342;2024-02-16T09:18:45;14.00;99.90
17348;DHT22;8791;50.876;4.342;2024-02-16T09:21:13;14.00;99.90
17348;DHT22;8791;50.876;4.342;2024-02-16T09:23:40;14.10;99.90
17348;DHT22;8791;50.876;4.342;2024-02-16T09:26:07;14.20;99.90
17348;DHT22;8791;50.876;4.342;2024-02-16T09:28:38;14.30;99.90
17348;DHT22;8791;50.876;4.342;2024-02-16T09:31:06;14.20;99.90
17348;DHT22;8791;50.876;4.342;2024-02-16T09:33:35;14.30;99.90
17348;DHT22;8791;50.876;4.342;2024-02-16T09:36:03;14.20;99.90
17348;DHT22;8791;50.876;4.342;2024-02-16T09:38:30;14.30;99.90
17348;DHT22;8791;50.876;4.342;2024-02-16T09:40:57;14.00;99.90
17348;DHT22;8791;50.876;4.342;2024-02-16T09:43:25;14.10;99.90
17348;DHT22;8791;50.876;4.342;2024-02-16T09:45:54;14.10;99.90
17348;DHT22;8791;50.876;4.342;2024-02-16T09:48:21;14.10;99.90
17348;DHT22;8791;50.876;4.342;2024-02-16T09:50:50;14.20;99.90
17348;DHT22;8791;50.876;4.342;2024-02-16T09:53:19;14.30;99.90
17348;DHT22;8791;50.876;4.342;2024-02-16T09:55:49;14.20;99.90
17348;DHT22;8791;50.876;4.342;2024-02-16T09:58:17;14.20;99.90
17348;DHT22;8791;50.876;4.342;2024-02-16T10:00:48;14.10;99.90
17348;DHT22;8791;50.876;4.342;2024-02-16T10:03:25;14.10;99.90
17348;DHT22;8791;50.876;4.342;2024-02-16T10:06:04;14.10;99.90
17348;DHT22;8791;50.876;4.342;2024-02-16T10:08:32;14.10;99.90
17348;DHT22;8791;50.876;4.342;2024-02-16T10:11:02;14.00;99.90
17348;DHT22;8791;50.876;4.342;2024-02-16T10:13:30;13.90;99.90
17348;DHT22;8791;50.876;4.342;2024-02-16T10:16:07;13.90;99.90
17348;DHT22;8791;50.876;4.342;2024-02-16T10:18:35;13.90;99.90
17348;DHT22;8791;50.876;4.342;2024-02-16T10:21:03;13.90;99.90
17348;DHT22;8791;50.876;4.342;2024-02-16T10:23:30;14.00;99.90
17348;DHT22;8791;50.876;4.342;2024-02-16T10:25:58;13.90;99.90
17348;DHT22;8791;50.876;4.342;2024-02-16T10:28:26;14.00;99.90
17348;DHT22;8791;50.876;4.342;2024-02-16T10:30:58;14.00;99.90
17348;DHT22;8791;50.876;4.342;2024-02-16T10:33:27;13.90;99.90
17348;DHT22;8791;50.876;4.342;2024-02-16T10:35:56;13.90;99.90
17348;DHT22;8791;50.876;4.342;2024-02-16T10:38:25;14.10;99.90
17348;DHT22;8791;50.876;4.342;2024-02-16T10:40:54;14.20;99.90
17348;DHT22;8791;50.876;4.342;2024-02-16T10:43:23;14.20;99.90
17348;DHT22;8791;50.876;4.342;2024-02-16T10:45:54;14.10;99.90
17348;DHT22;8791;50.876;4.342;2024-02-16T10:48:25;14.10;99.90
17348;DHT22;8791;50.876;4.342;2024-02-16T10:50:52;14.00;99.90
17348;DHT22;8791;50.876;4.342;2024-02-16T10:53:25;14.20;99.90
17348;DHT22;8791;50.876;4.342;2024-02-16T10:55:57;14.20;99.90
17348;DHT22;8791;50.876;4.342;2024-02-16T10:58:24;14.30;99.90
17348;DHT22;8791;50.876;4.342;2024-02-16T11:00:52;14.40;99.90
17348;DHT22;8791;50.876;4.342;2024-02-16T11:03:22;14.60;99.90
17348;DHT22;8791;50.876;4.342;2024-02-16T11:05:50;14.60;99.90
17348;DHT22;8791;50.876;4.342;2024-02-16T11:08:19;14.60;99.90
17348;DHT22;8791;50.876;4.342;2024-02-16T11:10:58;14.50;99.90
17348;DHT22;8791;50.876;4.342;2024-02-16T11:13:26;14.40;99.90
17348;DHT22;8791;50.876;4.342;2024-02-16T11:16:00;14.50;99.90
17348;DHT22;8791;50.876;4.342;2024-02-16T11:18:28;14.50;99.90
17348;DHT22;8791;50.876;4.342;2024-02-16T11:20:59;14.50;99.90
17348;DHT22;8791;50.876;4.342;2024-02-16T11:23:27;14.50;99.90
17348;DHT22;8791;50.876;4.342;2024-02-16T11:26:01;14.40;99.90
17348;DHT22;8791;50.876;4.342;2024-02-16T11:28:31;14.20;99.90
17348;DHT22;8791;50.876;4.342;2024-02-16T11:30:58;14.20;99.90
17348;DHT22;8791;50.876;4.342;2024-02-16T11:33:25;14.00;99.90
17348;DHT22;8791;50.876;4.342;2024-02-16T11:35:54;14.20;99.90
17348;DHT22;8791;50.876;4.342;2024-02-16T11:38:21;14.10;99.90
17348;DHT22;8791;50.876;4.342;2024-02-16T11:40:56;14.20;99.90
17348;DHT22;8791;50.876;4.342;2024-02-16T11:43:25;14.20;99.90
17348;DHT22;8791;50.876;4.342;2024-02-16T11:45:52;14.10;99.90
17348;DHT22;8791;50.876;4.342;2024-02-16T11:48:20;14.10;99.90
17348;DHT22;8791;50.876;4.342;2024-02-16T11:50:48;14.20;99.90
17348;DHT22;8791;50.876;4.342;2024-02-16T11:53:16;14.10;99.90
17348;DHT22;8791;50.876;4.342;2024-02-16T11:55:46;14.20;99.90
17348;DHT22;8791;50.876;4.342;2024-02-16T11:58:15;14.30;99.90
17348;DHT22;8791;50.876;4.342;2024-02-16T12:00:46;14.40;99.90
17348;DHT22;8791;50.876;4.342;2024-02-16T12:03:18;14.30;99.90
17348;DHT22;8791;50.876;4.342;2024-02-16T12:05:52;14.20;99.90
17348;DHT22;8791;50.876;4.342;2024-02-16T12:08:20;14.10;99.90
17348;DHT22;8791;50.876;4.342;2024-02-16T12:10:47;14.00;99.90
17348;DHT22;8791;50.876;4.342;2024-02-16T12:13:16;13.80;99.90
17348;DHT22;8791;50.876;4.342;2024-02-16T12:15:45;14.00;99.90
17348;DHT22;8791;50.876;4.342;2024-02-16T12:18:19;14.10;99.90
17348;DHT22;8791;50.876;4.342;2024-02-16T12:20:57;14.00;99.90
17348;DHT22;8791;50.876;4.342;2024-02-16T12:23:23;14.10;99.90
17348;DHT22;8791;50.876;4.342;2024-02-16T12:25:50;14.10;99.90
17348;DHT22;8791;50.876;4.342;2024-02-16T12:28:18;14.00;99.90
17348;DHT22;8791;50.876;4.342;2024-02-16T12:30:48;14.00;99.90
17348;DHT22;8791;50.876;4.342;2024-02-16T12:33:15;14.10;99.90
17348;DHT22;8791;50.876;4.342;2024-02-16T12:35:42;14.00;99.90
17348;DHT22;8791;50.876;4.342;2024-02-16T12:38:10;14.00;99.90
17348;DHT22;8791;50.876;4.342;2024-02-16T12:40:37;14.00;99.90
17348;DHT22;8791;50.876;4.342;2024-02-16T12:43:04;14.00;99.90
17348;DHT22;8791;50.876;4.342;2024-02-16T12:45:34;13.90;99.90
17348;DHT22;8791;50.876;4.342;2024-02-16T12:48:02;14.00;99.90
17348;DHT22;8791;50.876;4.342;2024-02-16T12:50:30;13.90;99.90
17348;DHT22;8791;50.876;4.342;2024-02-16T12:52:57;13.90;99.90
17348;DHT22;8791;50.876;4.342;2024-02-16T12:55:24;13.80;99.90
17348;DHT22;8791;50.876;4.342;2024-02-16T12:57:51;13.70;99.90
17348;DHT22;8791;50.876;4.342;2024-02-16T13:00:18;13.70;99.90
17348;DHT22;8791;50.876;4.342;2024-02-16T13:02:45;13.70;99.90
17348;DHT22;8791;50.876;4.342;2024-02-16T13:05:15;13.80;99.90
17348;DHT22;8791;50.876;4.342;2024-02-16T13:07:42;13.80;99.90
17348;DHT22;8791;50.876;4.342;2024-02-16T13:10:09;13.70;99.90
17348;DHT22;8791;50.876;4.342;2024-02-16T13:12:37;13.70;99.90
17348;DHT22;8791;50.876;4.342;2024-02-16T13:15:05;13.70;99.90
17348;DHT22;8791;50.876;4.342;2024-02-16T13:17:32;13.80;99.90
17348;DHT22;8791;50.876;4.342;2024-02-16T13:19:59;13.90;99.90
17348;DHT22;8791;50.876;4.342;2024-02-16T13:22:33;13.90;99.90
17348;DHT22;8791;50.876;4.342;2024-02-16T13:25:01;14.00;99.90
17348;DHT22;8791;50.876;4.342;2024-02-16T13:27:27;14.10;99.90
17348;DHT22;8791;50.876;4.342;2024-02-16T13:29:54;14.10;99.90
17348;DHT22;8791;50.876;4.342;2024-02-16T13:32:20;14.20;99.90
17348;DHT22;8791;50.876;4.342;2024-02-16T13:34:48;14.20;99.90
17348;DHT22;8791;50.876;4.342;2024-02-16T13:37:15;14.20;99.90
17348;DHT22;8791;50.876;4.342;2024-02-16T13:39:43;14.20;99.90
17348;DHT22;8791;50.876;4.342;2024-02-16T13:42:11;14.20;99.90
17348;DHT22;8791;50.876;4.342;2024-02-16T13:44:39;14.40;99.90
17348;DHT22;8791;50.876;4.342;2024-02-16T13:47:06;14.40;99.90
17348;DHT22;8791;50.876;4.342;2024-02-16T13:49:33;14.40;99.90
17348;DHT22;8791;50.876;4.342;2024-02-16T13:52:00;14.30;99.90
17348;DHT22;8791;50.876;4.342;2024-02-16T13:54:27;14.40;99.90
17348;DHT22;8791;50.876;4.342;2024-02-16T13:56:55;14.30;99.90
17348;DHT22;8791;50.876;4.342;2024-02-16T13:59:22;14.40;99.90
17348;DHT22;8791;50.876;4.342;2024-02-16T14:01:49;14.50;99.90
17348;DHT22;8791;50.876;4.342;2024-02-16T14:04:16;14.60;99.90
17348;DHT22;8791;50.876;4.342;2024-02-16T14:06:43;14.70;99.90
17348;DHT22;8791;50.876;4.342;2024-02-16T14:09:10;14.90;99.90
17348;DHT22;8791;50.876;4.342;2024-02-16T14:11:39;14.90;99.90
17348;DHT22;8791;50.876;4.342;2024-02-16T14:14:09;14.90;99.90
17348;DHT22;8791;50.876;4.342;2024-02-16T14:16:36;14.90;99.90
17348;DHT22;8791;50.876;4.342;2024-02-16T14:19:03;15.00;99.90
17348;DHT22;8791;50.876;4.342;2024-02-16T14:21:30;15.00;99.90
17348;DHT22;8791;50.876;4.342;2024-02-16T14:23:58;15.10;99.90
17348;DHT22;8791;50.876;4.342;2024-02-16T14:26:25;15.20;99.90
17348;DHT22;8791;50.876;4.342;2024-02-16T14:28:52;15.10;99.90
17348;DHT22;8791;50.876;4.342;2024-02-16T14:31:20;15.00;99.90
17348;DHT22;8791;50.876;4.342;2024-02-16T14:33:47;15.10;99.90
17348;DHT22;8791;50.876;4.342;2024-02-16T14:36:15;15.00;99.90
17348;DHT22;8791;50.876;4.342;2024-02-16T14:38:42;15.00;99.90
17348;DHT22;8791;50.876;4.342;2024-02-16T14:41:08;15.00;99.90
17348;DHT22;8791;50.876;4.342;2024-02-16T14:43:35;15.10;99.90
17348;DHT22;8791;50.876;4.342;2024-02-16T14:46:02;15.10;99.90
17348;DHT22;8791;50.876;4.342;2024-02-16T14:48:31;15.20;99.90
17348;DHT22;8791;50.876;4.342;2024-02-16T14:50:58;15.10;99.90
17348;DHT22;8791;50.876;4.342;2024-02-16T14:53:25;15.10;99.90
17348;DHT22;8791;50.876;4.342;2024-02-16T14:55:52;15.10;99.90
17348;DHT22;8791;50.876;4.342;2024-02-16T14:58:18;15.10;99.90
17348;DHT22;8791;50.876;4.342;2024-02-16T15:00:46;15.10;99.90
17348;DHT22;8791;50.876;4.342;2024-02-16T15:03:13;15.10;99.90
17348;DHT22;8791;50.876;4.342;2024-02-16T15:05:41;14.90;99.90
17348;DHT22;8791;50.876;4.342;2024-02-16T15:08:08;14.90;99.90
17348;DHT22;8791;50.876;4.342;2024-02-16T15:10:35;15.00;99.90
17348;DHT22;8791;50.876;4.342;2024-02-16T15:13:02;15.00;99.90
17348;DHT22;8791;50.876;4.342;2024-02-16T15:15:29;15.00;99.90
17348;DHT22;8791;50.876;4.342;2024-02-16T15:17:56;15.00;99.90
17348;DHT22;8791;50.876;4.342;2024-02-16T15:20:26;15.00;99.90
17348;DHT22;8791;50.876;4.342;2024-02-16T15:22:54;15.00;99.90
17348;DHT22;8791;50.876;4.342;2024-02-16T15:25:21;15.00;99.90
17348;DHT22;8791;50.876;4.342;2024-02-16T15:27:49;15.00;99.90
17348;DHT22;8791;50.876;4.342;2024-02-16T15:30:17;15.00;99.90
17348;DHT22;8791;50.876;4.342;2024-02-16T15:32:44;15.00;99.90
17348;DHT22;8791;50.876;4.342;2024-02-16T15:35:11;14.90;99.90
17348;DHT22;8791;50.876;4.342;2024-02-16T15:37:38;14.90;99.90
17348;DHT22;8791;50.876;4.342;2024-02-16T15:40:08;14.90;99.90
17348;DHT22;8791;50.876;4.342;2024-02-16T15:42:38;14.90;99.90
17348;DHT22;8791;50.876;4.342;2024-02-16T15:45:06;14.80;99.90
17348;DHT22;8791;50.876;4.342;2024-02-16T15:47:33;14.80;99.90
17348;DHT22;8791;50.876;4.342;2024-02-16T15:50:00;14.80;99.90
17348;DHT22;8791;50.876;4.342;2024-02-16T15:52:27;14.80;99.90